sensor_id;sensor_type;location;lat;lon;timestamp;temperature;humidity
10986;DHT22;5546;48.714;8.738;2024-01-15T00:00:42;2.90;92.10
10986;DHT22;5546;48.714;8.738;2024-01-15T00:03:09;2.50;92.30
10986;DHT22;5546;48.714;8.738;2024-01-15T00:05:36;2.60;92.00
10986;DHT22;5546;48.714;8.738;2024-01-15T00:08:01;2.60;92.40
10986;DHT22;5546;48.714;8.738;2024-01-15T00:10:27;2.70;92.10
10986;DHT22;5546;48.714;8.738;2024-01-15T00:15:18;2.40;92.30
10986;DHT22;5546;48.714;8.738;2024-01-15T00:17:44;2.50;92.10
10986;DHT22;5546;48.714;8.738;2024-01-15T00:20:10;2.50;92.40
10986;DHT22;5546;48.714;8.738;2024-01-15T00:22:36;2.50;92.70
10986;DHT22;5546;48.714;8.738;2024-01-15T00:25:02;2.70;92.30
10986;DHT22;5546;48.714;8.738;2024-01-15T00:27:28;2.70;92.60
10986;DHT22;5546;48.714;8.738;2024-01-15T00:29:53;2.40;92.80
10986;DHT22;5546;48.714;8.738;2024-01-15T00:32:20;2.60;92.60
10986;DHT22;5546;48.714;8.738;2024-01-15T00:34:45;2.60;92.80
10986;DHT22;5546;48.714;8.738;2024-01-15T00:37:11;2.50;92.90
10986;DHT22;5546;48.714;8.738;2024-01-15T00:39:37;2.60;92.80
10986;DHT22;5546;48.714;8.738;2024-01-15T00:42:02;2.70;92.90
10986;DHT22;5546;48.714;8.738;2024-01-15T00:44:28;2.60;92.90
10986;DHT22;5546;48.714;8.738;2024-01-15T00:46:53;2.80;92.90
10986;DHT22;5546;48.714;8.738;2024-01-15T00:49:19;2.60;92.90
10986;DHT22;5546;48.714;8.738;2024-01-15T00:51:45;2.90;92.90
10986;DHT22;5546;48.714;8.738;2024-01-15T00:54:10;2.90;92.50
10986;DHT22;5546;48.714;8.738;2024-01-15T00:56:36;2.90;92.60
10986;DHT22;5546;48.714;8.738;2024-01-15T00:59:02;2.90;92.80
10986;DHT22;5546;48.714;8.738;2024-01-15T01:01:28;2.90;92.70
10986;DHT22;5546;48.714;8.738;2024-01-15T01:03:53;2.80;92.70
10986;DHT22;5546;48.714;8.738;2024-01-15T01:06:19;2.70;92.90
10986;DHT22;5546;48.714;8.738;2024-01-15T01:08:44;2.70;93.40
10986;DHT22;5546;48.714;8.738;2024-01-15T01:11:13;2.70;93.60
10986;DHT22;5546;48.714;8.738;2024-01-15T01:13:39;2.60;93.20
10986;DHT22;5546;48.714;8.738;2024-01-15T01:16:04;2.80;93.00
10986;DHT22;5546;48.714;8.738;2024-01-15T01:18:30;2.70;92.80
10986;DHT22;5546;48.714;8.738;2024-01-15T01:20:55;2.90;93.10
10986;DHT22;5546;48.714;8.738;2024-01-15T01:23:21;2.60;93.10
10986;DHT22;5546;48.714;8.738;2024-01-15T01:25:46;2.60;93.10
10986;DHT22;5546;48.714;8.738;2024-01-15T01:28:12;2.60;93.40
10986;DHT22;5546;48.714;8.738;2024-01-15T01:30:37;2.80;93.60
10986;DHT22;5546;48.714;8.738;2024-01-15T01:33:03;2.50;93.30
10986;DHT22;5546;48.714;8.738;2024-01-15T01:35:29;2.40;93.40
10986;DHT22;5546;48.714;8.738;2024-01-15T01:37:54;2.50;93.50
10986;DHT22;5546;48.714;8.738;2024-01-15T01:40:20;2.40;93.70
10986;DHT22;5546;48.714;8.738;2024-01-15T01:42:46;2.60;93.40
10986;DHT22;5546;48.714;8.738;2024-01-15T01:45:11;2.20;93.20
10986;DHT22;5546;48.714;8.738;2024-01-15T01:47:38;2.30;93.90
10986;DHT22;5546;48.714;8.738;2024-01-15T01:50:04;2.30;94.20
10986;DHT22;5546;48.714;8.738;2024-01-15T01:52:30;2.20;93.80
10986;DHT22;5546;48.714;8.738;2024-01-15T01:54:57;2.30;93.90
10986;DHT22;5546;48.714;8.738;2024-01-15T01:57:23;2.30;93.70
10986;DHT22;5546;48.714;8.738;2024-01-15T01:59:49;2.00;94.00
10986;DHT22;5546;48.714;8.738;2024-01-15T02:02:16;2.10;94.20
10986;DHT22;5546;48.714;8.738;2024-01-15T02:04:42;2.00;94.20
10986;DHT22;5546;48.714;8.738;2024-01-15T02:07:07;2.10;94.20
10986;DHT22;5546;48.714;8.738;2024-01-15T02:09:35;2.10;94.20
10986;DHT22;5546;48.714;8.738;2024-01-15T02:12:01;2.10;94.30
10986;DHT22;5546;48.714;8.738;2024-01-15T02:14:26;2.10;94.40
10986;DHT22;5546;48.714;8.738;2024-01-15T02:16:52;2.10;94.60
10986;DHT22;5546;48.714;8.738;2024-01-15T02:19:18;2.30;94.50
10986;DHT22;5546;48.714;8.738;2024-01-15T02:21:44;2.30;94.30
10986;DHT22;5546;48.714;8.738;2024-01-15T02:24:09;2.30;94.50
10986;DHT22;5546;48.714;8.738;2024-01-15T02:26:35;2.20;94.40
10986;DHT22;5546;48.714;8.738;2024-01-15T02:29:02;2.10;94.70
10986;DHT22;5546;48.714;8.738;2024-01-15T02:33:54;2.20;94.50
10986;DHT22;5546;48.714;8.738;2024-01-15T02:36:20;2.40;94.40
10986;DHT22;5546;48.714;8.738;2024-01-15T02:38:45;2.40;94.70
10986;DHT22;5546;48.714;8.738;2024-01-15T02:41:11;2.50;94.50
10986;DHT22;5546;48.714;8.738;2024-01-15T02:43:39;2.50;94.40
10986;DHT22;5546;48.714;8.738;2024-01-15T02:46:05;2.60;94.50
10986;DHT22;5546;48.714;8.738;2024-01-15T02:48:30;2.30;94.50
10986;DHT22;5546;48.714;8.738;2024-01-15T02:50:56;2.20;94.50
10986;DHT22;5546;48.714;8.738;2024-01-15T02:53:21;2.30;94.80
10986;DHT22;5546;48.714;8.738;2024-01-15T02:55:47;2.40;94.70
10986;DHT22;5546;48.714;8.738;2024-01-15T03:00:38;2.70;94.40
10986;DHT22;5546;48.714;8.738;2024-01-15T03:05:30;3.00;93.90
10986;DHT22;5546;48.714;8.738;2024-01-15T03:07:55;2.90;93.80
10986;DHT22;5546;48.714;8.738;2024-01-15T03:10:21;2.90;93.60
10986;DHT22;5546;48.714;8.738;2024-01-15T03:12:46;2.90;94.00
10986;DHT22;5546;48.714;8.738;2024-01-15T03:15:12;3.20;93.70
10986;DHT22;5546;48.714;8.738;2024-01-15T03:17:38;3.10;93.60
10986;DHT22;5546;48.714;8.738;2024-01-15T03:20:05;3.20;93.90
10986;DHT22;5546;48.714;8.738;2024-01-15T03:22:30;3.10;93.80
10986;DHT22;5546;48.714;8.738;2024-01-15T03:24:56;3.20;93.80
10986;DHT22;5546;48.714;8.738;2024-01-15T03:27:21;3.10;93.80
10986;DHT22;5546;48.714;8.738;2024-01-15T03:29:47;3.00;94.00
10986;DHT22;5546;48.714;8.738;2024-01-15T03:32:13;3.10;94.40
10986;DHT22;5546;48.714;8.738;2024-01-15T03:37:04;3.10;93.80
10986;DHT22;5546;48.714;8.738;2024-01-15T03:39:30;3.50;93.00
10986;DHT22;5546;48.714;8.738;2024-01-15T03:41:55;2.70;92.70
10986;DHT22;5546;48.714;8.738;2024-01-15T03:44:22;2.10;93.60
10986;DHT22;5546;48.714;8.738;2024-01-15T03:46:48;2.10;94.30
10986;DHT22;5546;48.714;8.738;2024-01-15T03:49:13;2.60;94.00
10986;DHT22;5546;48.714;8.738;2024-01-15T03:51:39;2.30;93.70
10986;DHT22;5546;48.714;8.738;2024-01-15T03:54:04;1.90;94.50
10986;DHT22;5546;48.714;8.738;2024-01-15T03:56:30;1.90;94.80
10986;DHT22;5546;48.714;8.738;2024-01-15T03:58:55;1.90;95.10
10986;DHT22;5546;48.714;8.738;2024-01-15T04:01:21;1.80;95.20
10986;DHT22;5546;48.714;8.738;2024-01-15T04:03:46;1.50;95.50
10986;DHT22;5546;48.714;8.738;2024-01-15T04:06:12;2.20;95.00
10986;DHT22;5546;48.714;8.738;2024-01-15T04:08:37;2.40;94.40
10986;DHT22;5546;48.714;8.738;2024-01-15T04:11:03;3.00;94.80
10986;DHT22;5546;48.714;8.738;2024-01-15T04:13:31;3.40;93.70
10986;DHT22;5546;48.714;8.738;2024-01-15T04:15:57;3.40;93.90
10986;DHT22;5546;48.714;8.738;2024-01-15T04:18:23;3.50;93.30
10986;DHT22;5546;48.714;8.738;2024-01-15T04:20:48;3.60;93.20
10986;DHT22;5546;48.714;8.738;2024-01-15T04:23:14;3.70;93.00
10986;DHT22;5546;48.714;8.738;2024-01-15T04:25:39;3.70;93.20
10986;DHT22;5546;48.714;8.738;2024-01-15T04:28:08;3.40;93.50
10986;DHT22;5546;48.714;8.738;2024-01-15T04:30:34;3.20;93.70
10986;DHT22;5546;48.714;8.738;2024-01-15T04:32:59;3.40;93.80
10986;DHT22;5546;48.714;8.738;2024-01-15T04:35:25;3.40;94.00
10986;DHT22;5546;48.714;8.738;2024-01-15T04:37:50;3.60;93.30
10986;DHT22;5546;48.714;8.738;2024-01-15T04:40:16;3.50;93.60
10986;DHT22;5546;48.714;8.738;2024-01-15T04:42:41;3.80;93.50
10986;DHT22;5546;48.714;8.738;2024-01-15T04:45:07;3.90;93.10
10986;DHT22;5546;48.714;8.738;2024-01-15T04:47:33;3.90;93.30
10986;DHT22;5546;48.714;8.738;2024-01-15T04:49:58;3.90;93.00
10986;DHT22;5546;48.714;8.738;2024-01-15T04:52:24;3.90;93.30
10986;DHT22;5546;48.714;8.738;2024-01-15T04:57:15;3.80;93.40
10986;DHT22;5546;48.714;8.738;2024-01-15T04:59:41;3.90;93.70
10986;DHT22;5546;48.714;8.738;2024-01-15T05:02:06;3.70;94.10
10986;DHT22;5546;48.714;8.738;2024-01-15T05:04:32;3.80;93.30
10986;DHT22;5546;48.714;8.738;2024-01-15T05:06:58;3.00;93.30
10986;DHT22;5546;48.714;8.738;2024-01-15T05:09:24;2.40;94.20
10986;DHT22;5546;48.714;8.738;2024-01-15T05:11:49;2.60;95.20
10986;DHT22;5546;48.714;8.738;2024-01-15T05:14:15;2.80;93.90
10986;DHT22;5546;48.714;8.738;2024-01-15T05:16:47;2.80;94.30
10986;DHT22;5546;48.714;8.738;2024-01-15T05:19:13;2.80;94.60
10986;DHT22;5546;48.714;8.738;2024-01-15T05:21:39;2.20;95.20
10986;DHT22;5546;48.714;8.738;2024-01-15T05:24:04;2.10;95.30
10986;DHT22;5546;48.714;8.738;2024-01-15T05:26:30;2.10;95.30
10986;DHT22;5546;48.714;8.738;2024-01-15T05:28:56;2.60;95.20
10986;DHT22;5546;48.714;8.738;2024-01-15T05:31:21;2.60;95.10
10986;DHT22;5546;48.714;8.738;2024-01-15T05:33:47;2.50;95.20
10986;DHT22;5546;48.714;8.738;2024-01-15T05:36:12;2.80;95.10
10986;DHT22;5546;48.714;8.738;2024-01-15T05:38:38;2.50;95.00
10986;DHT22;5546;48.714;8.738;2024-01-15T05:41:05;2.40;95.50
10986;DHT22;5546;48.714;8.738;2024-01-15T05:43:31;2.30;95.70
10986;DHT22;5546;48.714;8.738;2024-01-15T05:45:56;2.70;95.10
10986;DHT22;5546;48.714;8.738;2024-01-15T05:48:22;2.70;95.20
10986;DHT22;5546;48.714;8.738;2024-01-15T05:50:47;2.40;95.10
10986;DHT22;5546;48.714;8.738;2024-01-15T05:53:14;2.10;95.60
10986;DHT22;5546;48.714;8.738;2024-01-15T05:55:40;2.30;95.60
10986;DHT22;5546;48.714;8.738;2024-01-15T05:58:05;2.50;95.10
10986;DHT22;5546;48.714;8.738;2024-01-15T06:00:31;2.30;95.30
10986;DHT22;5546;48.714;8.738;2024-01-15T06:02:58;2.30;95.60
10986;DHT22;5546;48.714;8.738;2024-01-15T06:05:24;2.10;95.60
10986;DHT22;5546;48.714;8.738;2024-01-15T06:07:49;2.00;95.70
10986;DHT22;5546;48.714;8.738;2024-01-15T06:10:15;2.00;95.60
10986;DHT22;5546;48.714;8.738;2024-01-15T06:12:42;2.00;96.00
10986;DHT22;5546;48.714;8.738;2024-01-15T06:15:08;2.20;95.40
10986;DHT22;5546;48.714;8.738;2024-01-15T06:19:59;2.60;94.70
10986;DHT22;5546;48.714;8.738;2024-01-15T06:22:25;2.80;94.60
10986;DHT22;5546;48.714;8.738;2024-01-15T06:29:45;3.20;94.00
10986;DHT22;5546;48.714;8.738;2024-01-15T06:32:14;3.30;93.50
10986;DHT22;5546;48.714;8.738;2024-01-15T06:34:40;3.20;93.60
10986;DHT22;5546;48.714;8.738;2024-01-15T06:37:06;3.30;93.70
10986;DHT22;5546;48.714;8.738;2024-01-15T06:39:31;3.50;93.40
10986;DHT22;5546;48.714;8.738;2024-01-15T06:41:57;3.50;93.70
10986;DHT22;5546;48.714;8.738;2024-01-15T06:44:23;3.90;92.60
10986;DHT22;5546;48.714;8.738;2024-01-15T06:46:48;3.60;92.50
10986;DHT22;5546;48.714;8.738;2024-01-15T06:49:14;3.50;93.10
10986;DHT22;5546;48.714;8.738;2024-01-15T06:51:40;3.50;93.40
10986;DHT22;5546;48.714;8.738;2024-01-15T06:54:06;3.50;93.00
10986;DHT22;5546;48.714;8.738;2024-01-15T06:56:32;3.30;93.20
10986;DHT22;5546;48.714;8.738;2024-01-15T06:58:57;3.30;93.40
10986;DHT22;5546;48.714;8.738;2024-01-15T07:01:23;3.10;93.00
10986;DHT22;5546;48.714;8.738;2024-01-15T07:03:48;3.00;93.30
10986;DHT22;5546;48.714;8.738;2024-01-15T07:06:14;3.00;93.50
10986;DHT22;5546;48.714;8.738;2024-01-15T07:08:40;3.30;93.10
10986;DHT22;5546;48.714;8.738;2024-01-15T07:11:06;3.30;93.30
10986;DHT22;5546;48.714;8.738;2024-01-15T07:13:32;3.40;93.60
10986;DHT22;5546;48.714;8.738;2024-01-15T07:15:58;3.50;93.10
10986;DHT22;5546;48.714;8.738;2024-01-15T07:18:23;3.20;92.40
10986;DHT22;5546;48.714;8.738;2024-01-15T07:23:16;3.60;92.70
10986;DHT22;5546;48.714;8.738;2024-01-15T07:25:42;3.60;92.90
10986;DHT22;5546;48.714;8.738;2024-01-15T07:28:08;3.50;92.10
10986;DHT22;5546;48.714;8.738;2024-01-15T07:30:33;3.50;92.40
10986;DHT22;5546;48.714;8.738;2024-01-15T07:32:59;3.60;91.90
10986;DHT22;5546;48.714;8.738;2024-01-15T07:35:24;3.40;91.90
10986;DHT22;5546;48.714;8.738;2024-01-15T07:37:50;3.80;92.50
10986;DHT22;5546;48.714;8.738;2024-01-15T07:40:16;3.80;91.60
10986;DHT22;5546;48.714;8.738;2024-01-15T07:42:41;3.40;91.60
10986;DHT22;5546;48.714;8.738;2024-01-15T07:45:08;3.50;91.70
10986;DHT22;5546;48.714;8.738;2024-01-15T07:47:34;3.60;91.60
10986;DHT22;5546;48.714;8.738;2024-01-15T07:49:59;3.50;91.50
10986;DHT22;5546;48.714;8.738;2024-01-15T07:52:25;3.60;91.80
10986;DHT22;5546;48.714;8.738;2024-01-15T07:54:50;3.30;91.70
10986;DHT22;5546;48.714;8.738;2024-01-15T07:57:16;3.30;91.90
10986;DHT22;5546;48.714;8.738;2024-01-15T07:59:41;3.60;91.20
10986;DHT22;5546;48.714;8.738;2024-01-15T08:02:07;3.60;91.50
10986;DHT22;5546;48.714;8.738;2024-01-15T08:04:33;3.40;91.10
10986;DHT22;5546;48.714;8.738;2024-01-15T08:06:58;3.40;91.20
10986;DHT22;5546;48.714;8.738;2024-01-15T08:09:24;3.70;91.30
10986;DHT22;5546;48.714;8.738;2024-01-15T08:11:49;3.70;90.70
10986;DHT22;5546;48.714;8.738;2024-01-15T08:14:15;3.90;90.30
10986;DHT22;5546;48.714;8.738;2024-01-15T08:16:40;4.00;90.70
10986;DHT22;5546;48.714;8.738;2024-01-15T08:19:06;3.90;89.80
10986;DHT22;5546;48.714;8.738;2024-01-15T08:21:32;3.80;90.20
10986;DHT22;5546;48.714;8.738;2024-01-15T08:23:59;4.00;89.50
10986;DHT22;5546;48.714;8.738;2024-01-15T08:26:25;4.10;90.10
10986;DHT22;5546;48.714;8.738;2024-01-15T08:28:51;3.90;90.00
10986;DHT22;5546;48.714;8.738;2024-01-15T08:31:16;4.30;88.90
10986;DHT22;5546;48.714;8.738;2024-01-15T08:33:42;3.90;88.80
10986;DHT22;5546;48.714;8.738;2024-01-15T08:36:09;4.30;89.50
10986;DHT22;5546;48.714;8.738;2024-01-15T08:38:35;4.00;88.50
10986;DHT22;5546;48.714;8.738;2024-01-15T08:41:00;4.20;89.00
10986;DHT22;5546;48.714;8.738;2024-01-15T08:43:27;4.20;89.50
10986;DHT22;5546;48.714;8.738;2024-01-15T08:45:52;3.60;90.00
10986;DHT22;5546;48.714;8.738;2024-01-15T08:48:18;3.50;90.30
10986;DHT22;5546;48.714;8.738;2024-01-15T08:50:44;3.50;90.90
10986;DHT22;5546;48.714;8.738;2024-01-15T08:53:13;3.80;90.70
10986;DHT22;5546;48.714;8.738;2024-01-15T08:55:38;3.40;91.50
10986;DHT22;5546;48.714;8.738;2024-01-15T08:58:04;3.40;91.80
10986;DHT22;5546;48.714;8.738;2024-01-15T09:00:30;3.70;91.50
10986;DHT22;5546;48.714;8.738;2024-01-15T09:02:56;3.70;91.90
10986;DHT22;5546;48.714;8.738;2024-01-15T09:05:22;3.70;92.20
10986;DHT22;5546;48.714;8.738;2024-01-15T09:07:48;3.90;92.00
10986;DHT22;5546;48.714;8.738;2024-01-15T09:10:14;4.30;91.70
10986;DHT22;5546;48.714;8.738;2024-01-15T09:12:40;4.40;91.90
10986;DHT22;5546;48.714;8.738;2024-01-15T09:15:06;4.50;91.40
10986;DHT22;5546;48.714;8.738;2024-01-15T09:17:32;3.50;91.80
10986;DHT22;5546;48.714;8.738;2024-01-15T09:22:23;2.80;92.90
10986;DHT22;5546;48.714;8.738;2024-01-15T09:24:49;3.30;92.80
10986;DHT22;5546;48.714;8.738;2024-01-15T09:27:14;3.50;93.10
10986;DHT22;5546;48.714;8.738;2024-01-15T09:29:41;3.50;92.50
10986;DHT22;5546;48.714;8.738;2024-01-15T09:32:07;3.40;91.40
10986;DHT22;5546;48.714;8.738;2024-01-15T09:34:36;3.60;91.60
10986;DHT22;5546;48.714;8.738;2024-01-15T09:39:29;3.90;91.00
10986;DHT22;5546;48.714;8.738;2024-01-15T09:41:56;3.50;91.50
10986;DHT22;5546;48.714;8.738;2024-01-15T09:44:23;3.30;91.50
10986;DHT22;5546;48.714;8.738;2024-01-15T09:46:48;3.00;91.80
10986;DHT22;5546;48.714;8.738;2024-01-15T09:49:18;3.00;92.00
10986;DHT22;5546;48.714;8.738;2024-01-15T09:51:44;3.20;92.20
10986;DHT22;5546;48.714;8.738;2024-01-15T09:54:10;4.00;91.80
10986;DHT22;5546;48.714;8.738;2024-01-15T09:56:38;4.60;90.80
10986;DHT22;5546;48.714;8.738;2024-01-15T09:59:04;4.30;90.30
10986;DHT22;5546;48.714;8.738;2024-01-15T10:01:31;4.00;90.10
10986;DHT22;5546;48.714;8.738;2024-01-15T10:03:57;4.00;90.80
10986;DHT22;5546;48.714;8.738;2024-01-15T10:06:27;3.90;91.00
10986;DHT22;5546;48.714;8.738;2024-01-15T10:08:56;4.00;90.90
10986;DHT22;5546;48.714;8.738;2024-01-15T10:11:23;3.80;91.00
10986;DHT22;5546;48.714;8.738;2024-01-15T10:13:49;3.80;91.00
10986;DHT22;5546;48.714;8.738;2024-01-15T10:16:19;4.00;91.10
10986;DHT22;5546;48.714;8.738;2024-01-15T10:18:45;4.10;90.90
10986;DHT22;5546;48.714;8.738;2024-01-15T10:21:10;4.10;91.10
10986;DHT22;5546;48.714;8.738;2024-01-15T10:23:36;4.70;90.40
10986;DHT22;5546;48.714;8.738;2024-01-15T10:26:03;4.80;90.10
10986;DHT22;5546;48.714;8.738;2024-01-15T10:28:29;4.50;90.10
10986;DHT22;5546;48.714;8.738;2024-01-15T10:30:57;4.60;90.40
10986;DHT22;5546;48.714;8.738;2024-01-15T10:33:23;5.00;90.40
10986;DHT22;5546;48.714;8.738;2024-01-15T10:35:55;5.30;90.30
10986;DHT22;5546;48.714;8.738;2024-01-15T10:38:22;4.90;90.30
10986;DHT22;5546;48.714;8.738;2024-01-15T10:40:51;4.70;90.60
10986;DHT22;5546;48.714;8.738;2024-01-15T10:43:17;4.70;90.90
10986;DHT22;5546;48.714;8.738;2024-01-15T10:45:47;4.50;91.00
10986;DHT22;5546;48.714;8.738;2024-01-15T10:48:13;4.50;91.50
10986;DHT22;5546;48.714;8.738;2024-01-15T10:50:39;4.40;91.70
10986;DHT22;5546;48.714;8.738;2024-01-15T10:53:05;4.20;92.20
10986;DHT22;5546;48.714;8.738;2024-01-15T10:55:35;4.40;92.70
10986;DHT22;5546;48.714;8.738;2024-01-15T10:58:02;5.00;92.10
10986;DHT22;5546;48.714;8.738;2024-01-15T11:00:29;5.00;92.40
10986;DHT22;5546;48.714;8.738;2024-01-15T11:03:02;5.00;92.50
10986;DHT22;5546;48.714;8.738;2024-01-15T11:05:28;3.80;93.40
10986;DHT22;5546;48.714;8.738;2024-01-15T11:08:01;3.90;94.20
10986;DHT22;5546;48.714;8.738;2024-01-15T11:10:51;3.90;94.50
10986;DHT22;5546;48.714;8.738;2024-01-15T11:13:41;4.20;94.10
10986;DHT22;5546;48.714;8.738;2024-01-15T11:16:08;4.20;93.60
10986;DHT22;5546;48.714;8.738;2024-01-15T11:19:01;4.30;94.10
10986;DHT22;5546;48.714;8.738;2024-01-15T11:21:26;4.30;94.40
10986;DHT22;5546;48.714;8.738;2024-01-15T11:23:56;4.30;94.40
10986;DHT22;5546;48.714;8.738;2024-01-15T11:26:35;3.50;94.90
10986;DHT22;5546;48.714;8.738;2024-01-15T11:29:05;3.70;95.10
10986;DHT22;5546;48.714;8.738;2024-01-15T11:34:10;3.50;95.70
10986;DHT22;5546;48.714;8.738;2024-01-15T11:42:03;4.20;94.70
10986;DHT22;5546;48.714;8.738;2024-01-15T11:44:29;4.20;94.80
10986;DHT22;5546;48.714;8.738;2024-01-15T11:47:03;4.20;94.60
10986;DHT22;5546;48.714;8.738;2024-01-15T11:52:22;4.10;95.30
10986;DHT22;5546;48.714;8.738;2024-01-15T11:55:06;4.30;96.10
10986;DHT22;5546;48.714;8.738;2024-01-15T12:00:18;4.10;97.10
10986;DHT22;5546;48.714;8.738;2024-01-15T12:02:45;3.70;98.00
10986;DHT22;5546;48.714;8.738;2024-01-15T12:05:13;3.60;98.20
10986;DHT22;5546;48.714;8.738;2024-01-15T12:07:40;3.70;98.40
10986;DHT22;5546;48.714;8.738;2024-01-15T12:13:13;3.20;99.40
10986;DHT22;5546;48.714;8.738;2024-01-15T12:15:38;3.60;99.40
10986;DHT22;5546;48.714;8.738;2024-01-15T12:18:08;3.60;98.70
10986;DHT22;5546;48.714;8.738;2024-01-15T12:20:37;3.30;99.60
10986;DHT22;5546;48.714;8.738;2024-01-15T12:25:30;3.30;99.80
10986;DHT22;5546;48.714;8.738;2024-01-15T12:27:56;2.90;99.90
10986;DHT22;5546;48.714;8.738;2024-01-15T12:30:22;3.00;99.90
10986;DHT22;5546;48.714;8.738;2024-01-15T12:32:48;2.80;99.90
10986;DHT22;5546;48.714;8.738;2024-01-15T12:35:14;2.80;99.90
10986;DHT22;5546;48.714;8.738;2024-01-15T12:37:41;3.00;99.90
10986;DHT22;5546;48.714;8.738;2024-01-15T12:40:08;3.10;99.90
10986;DHT22;5546;48.714;8.738;2024-01-15T12:42:35;3.30;99.90
10986;DHT22;5546;48.714;8.738;2024-01-15T12:45:02;3.00;99.90
10986;DHT22;5546;48.714;8.738;2024-01-15T12:47:28;3.10;99.90
10986;DHT22;5546;48.714;8.738;2024-01-15T12:49:54;3.50;99.90
10986;DHT22;5546;48.714;8.738;2024-01-15T12:52:20;3.50;99.90
10986;DHT22;5546;48.714;8.738;2024-01-15T12:54:49;3.50;99.90
10986;DHT22;5546;48.714;8.738;2024-01-15T12:57:16;3.30;99.90
10986;DHT22;5546;48.714;8.738;2024-01-15T12:59:42;3.10;99.90
10986;DHT22;5546;48.714;8.738;2024-01-15T13:02:08;3.40;99.90
10986;DHT22;5546;48.714;8.738;2024-01-15T13:04:33;3.80;99.90
10986;DHT22;5546;48.714;8.738;2024-01-15T13:09:25;4.00;99.90
10986;DHT22;5546;48.714;8.738;2024-01-15T13:11:50;3.80;99.90
10986;DHT22;5546;48.714;8.738;2024-01-15T13:14:17;3.90;99.90
10986;DHT22;5546;48.714;8.738;2024-01-15T13:16:43;4.10;99.90
10986;DHT22;5546;48.714;8.738;2024-01-15T13:19:09;4.40;99.90
10986;DHT22;5546;48.714;8.738;2024-01-15T13:21:37;4.50;99.90
10986;DHT22;5546;48.714;8.738;2024-01-15T13:26:33;4.90;99.90
10986;DHT22;5546;48.714;8.738;2024-01-15T13:29:05;5.20;99.00
10986;DHT22;5546;48.714;8.738;2024-01-15T13:31:32;4.30;99.90
10986;DHT22;5546;48.714;8.738;2024-01-15T13:33:57;4.40;99.90
10986;DHT22;5546;48.714;8.738;2024-01-15T13:36:24;4.90;99.90
10986;DHT22;5546;48.714;8.738;2024-01-15T13:38:53;5.30;99.50
10986;DHT22;5546;48.714;8.738;2024-01-15T13:43:49;4.70;99.90
10986;DHT22;5546;48.714;8.738;2024-01-15T13:46:14;4.90;99.90
10986;DHT22;5546;48.714;8.738;2024-01-15T13:48:40;5.00;99.20
10986;DHT22;5546;48.714;8.738;2024-01-15T13:51:05;5.00;99.50
10986;DHT22;5546;48.714;8.738;2024-01-15T13:53:31;4.90;99.90
10986;DHT22;5546;48.714;8.738;2024-01-15T13:55:57;5.20;99.50
10986;DHT22;5546;48.714;8.738;2024-01-15T13:58:22;5.20;98.90
10986;DHT22;5546;48.714;8.738;2024-01-15T14:00:48;4.40;99.70
10986;DHT22;5546;48.714;8.738;2024-01-15T14:03:15;4.50;99.90
10986;DHT22;5546;48.714;8.738;2024-01-15T14:05:40;4.40;99.90
10986;DHT22;5546;48.714;8.738;2024-01-15T14:08:06;4.60;99.90
10986;DHT22;5546;48.714;8.738;2024-01-15T14:10:33;5.00;99.80
10986;DHT22;5546;48.714;8.738;2024-01-15T14:12:58;4.90;99.60
10986;DHT22;5546;48.714;8.738;2024-01-15T14:15:24;4.30;99.80
10986;DHT22;5546;48.714;8.738;2024-01-15T14:17:49;4.10;99.10
10986;DHT22;5546;48.714;8.738;2024-01-15T14:20:15;3.80;99.40
10986;DHT22;5546;48.714;8.738;2024-01-15T14:22:46;3.30;99.70
10986;DHT22;5546;48.714;8.738;2024-01-15T14:30:04;4.10;99.30
10986;DHT22;5546;48.714;8.738;2024-01-15T14:32:31;4.40;98.50
10986;DHT22;5546;48.714;8.738;2024-01-15T14:34:56;4.60;97.90
10986;DHT22;5546;48.714;8.738;2024-01-15T14:37:22;4.60;98.10
10986;DHT22;5546;48.714;8.738;2024-01-15T14:39:48;4.60;96.60
10986;DHT22;5546;48.714;8.738;2024-01-15T14:42:13;4.60;96.90
10986;DHT22;5546;48.714;8.738;2024-01-15T14:44:39;4.60;96.70
10986;DHT22;5546;48.714;8.738;2024-01-15T14:47:06;4.40;97.20
10986;DHT22;5546;48.714;8.738;2024-01-15T14:49:33;4.20;96.20
10986;DHT22;5546;48.714;8.738;2024-01-15T14:51:59;4.00;96.20
10986;DHT22;5546;48.714;8.738;2024-01-15T14:54:24;4.00;96.50
10986;DHT22;5546;48.714;8.738;2024-01-15T14:56:51;4.20;97.20
10986;DHT22;5546;48.714;8.738;2024-01-15T15:01:42;4.20;96.00
10986;DHT22;5546;48.714;8.738;2024-01-15T15:04:08;4.20;95.40
10986;DHT22;5546;48.714;8.738;2024-01-15T15:06:36;4.30;95.40
10986;DHT22;5546;48.714;8.738;2024-01-15T15:09:01;4.20;95.30
10986;DHT22;5546;48.714;8.738;2024-01-15T15:11:27;4.00;95.30
10986;DHT22;5546;48.714;8.738;2024-01-15T15:13:53;3.70;95.70
10986;DHT22;5546;48.714;8.738;2024-01-15T15:16:18;3.70;95.90
10986;DHT22;5546;48.714;8.738;2024-01-15T15:18:44;4.00;95.60
10986;DHT22;5546;48.714;8.738;2024-01-15T15:21:11;4.40;95.40
10986;DHT22;5546;48.714;8.738;2024-01-15T15:23:37;4.40;95.50
10986;DHT22;5546;48.714;8.738;2024-01-15T15:28:34;4.10;94.30
10986;DHT22;5546;48.714;8.738;2024-01-15T15:31:02;4.10;94.10
10986;DHT22;5546;48.714;8.738;2024-01-15T15:36:02;3.80;93.60
10986;DHT22;5546;48.714;8.738;2024-01-15T15:40:57;3.80;95.10
10986;DHT22;5546;48.714;8.738;2024-01-15T15:43:25;3.80;94.60
10986;DHT22;5546;48.714;8.738;2024-01-15T15:45:51;4.00;94.10
10986;DHT22;5546;48.714;8.738;2024-01-15T15:48:17;3.70;93.60
10986;DHT22;5546;48.714;8.738;2024-01-15T15:53:08;4.10;95.00
10986;DHT22;5546;48.714;8.738;2024-01-15T15:55:34;4.00;95.00
10986;DHT22;5546;48.714;8.738;2024-01-15T15:58:02;4.10;95.00
10986;DHT22;5546;48.714;8.738;2024-01-15T16:00:29;3.80;94.90
10986;DHT22;5546;48.714;8.738;2024-01-15T16:02:54;3.90;94.60
10986;DHT22;5546;48.714;8.738;2024-01-15T16:05:20;3.70;95.30
10986;DHT22;5546;48.714;8.738;2024-01-15T16:07:46;3.80;95.30
10986;DHT22;5546;48.714;8.738;2024-01-15T16:10:11;4.00;94.80
10986;DHT22;5546;48.714;8.738;2024-01-15T16:12:37;4.00;93.90
10986;DHT22;5546;48.714;8.738;2024-01-15T16:15:20;3.90;94.30
10986;DHT22;5546;48.714;8.738;2024-01-15T16:17:46;3.90;94.60
10986;DHT22;5546;48.714;8.738;2024-01-15T16:20:12;4.00;94.40
10986;DHT22;5546;48.714;8.738;2024-01-15T16:22:37;3.90;94.40
10986;DHT22;5546;48.714;8.738;2024-01-15T16:25:03;3.70;95.40
10986;DHT22;5546;48.714;8.738;2024-01-15T16:27:29;3.80;95.50
10986;DHT22;5546;48.714;8.738;2024-01-15T16:29:54;3.90;95.30
10986;DHT22;5546;48.714;8.738;2024-01-15T16:32:20;3.50;95.50
10986;DHT22;5546;48.714;8.738;2024-01-15T16:34:45;3.70;96.20
10986;DHT22;5546;48.714;8.738;2024-01-15T16:37:11;3.70;96.00
10986;DHT22;5546;48.714;8.738;2024-01-15T16:39:36;3.60;95.80
10986;DHT22;5546;48.714;8.738;2024-01-15T16:42:10;3.50;96.30
10986;DHT22;5546;48.714;8.738;2024-01-15T16:44:36;3.50;96.50
10986;DHT22;5546;48.714;8.738;2024-01-15T16:47:02;3.30;95.90
10986;DHT22;5546;48.714;8.738;2024-01-15T16:49:29;3.60;95.90
10986;DHT22;5546;48.714;8.738;2024-01-15T16:51:55;3.60;96.10
10986;DHT22;5546;48.714;8.738;2024-01-15T16:54:20;3.40;95.90
10986;DHT22;5546;48.714;8.738;2024-01-15T16:56:46;3.40;95.80
10986;DHT22;5546;48.714;8.738;2024-01-15T16:59:12;3.40;95.40
10986;DHT22;5546;48.714;8.738;2024-01-15T17:01:37;2.80;96.20
10986;DHT22;5546;48.714;8.738;2024-01-15T17:04:03;2.90;97.10
10986;DHT22;5546;48.714;8.738;2024-01-15T17:06:31;2.80;97.30
10986;DHT22;5546;48.714;8.738;2024-01-15T17:08:57;3.50;97.10